Observations for LAMPEDUSA ISLAND, Italy (LICD)

LICD 180650Z 01015KT 8000 SCT008 22/20 Q1013
LICD 172150Z AUTO 35010KT 8000 NCD 22/20 Q1013  
LICD 172050Z AUTO 36008KT 8000 NCD 22/21 Q1012  
LICD 171950Z 36008KT CAVOK 22/21 Q1012  
LICD 171850Z 02013KT 9999 FEW010 22/21 Q1011
LICD 171750Z 03013KT CAVOK 22/21 Q1011  
LICD 171650Z 02013KT CAVOK 23/20 Q1012  
LICD 171550Z 02015KT 9999 FEW010 23/20 Q1012
LICD 171450Z 02012KT 9999 FEW006 23/20 Q1012
LICD 171350Z 36011KT 9999 FEW010 24/21 Q1013
LICD 171250Z 01011KT 9999 FEW015 23/21 Q1013
LICD 171150Z 36011KT 330V030 8000 FEW008 24/20 Q1013
LICD 171050Z 35009KT 9000 NSC 24/21 Q1013   
LICD 170950Z 35011KT 8000 FEW004 23/20 Q1013
LICD 170850Z 34011KT 6000 FEW002 23/20 Q1012
LICD 170750Z 32009KT 6000 NSC 22/20 Q1012   
LICD 170652Z 36006KT 9000 NSC 22/21 Q1012
LICD 170650Z 36008KT 5000 BR NSC 21/20 Q1012